createdAt,value
2023-01-13T00:00:03.353Z,11.50
2023-01-13T00:00:13.359Z,11.46
2023-01-13T00:00:23.400Z,11.54
2023-01-13T00:00:33.349Z,11.61
2023-01-13T00:00:43.338Z,11.52
2023-01-13T00:00:53.388Z,11.38
2023-01-13T00:01:03.339Z,11.61
2023-01-13T00:01:13.307Z,11.70
2023-01-13T00:01:23.337Z,11.65
2023-01-13T00:01:33.320Z,11.52
2023-01-13T00:01:43.322Z,11.46
2023-01-13T00:01:53.320Z,11.62
2023-01-13T00:02:03.358Z,11.56
2023-01-13T00:02:13.932Z,11.61
2023-01-13T00:02:23.396Z,11.56
2023-01-13T00:02:33.355Z,11.57
2023-01-13T00:02:44.011Z,11.57
2023-01-13T00:02:53.364Z,11.56
2023-01-13T00:03:03.312Z,11.49
2023-01-13T00:03:13.385Z,11.47
2023-01-13T00:03:23.305Z,11.52
2023-01-13T00:03:33.309Z,11.39
2023-01-13T00:03:43.306Z,11.52
2023-01-13T00:03:53.301Z,11.70
2023-01-13T00:04:03.301Z,11.44
2023-01-13T00:04:13.302Z,11.47
2023-01-13T00:04:23.364Z,11.36
2023-01-13T00:04:33.905Z,11.39
2023-01-13T00:04:43.317Z,11.59
2023-01-13T00:04:53.430Z,11.61
2023-01-13T00:05:03.984Z,11.49
2023-01-13T00:05:13.296Z,11.53
2023-01-13T00:05:23.310Z,11.50
2023-01-13T00:05:33.295Z,11.56
2023-01-13T00:05:43.291Z,11.38
2023-01-13T00:05:53.298Z,11.47
2023-01-13T00:06:03.288Z,11.59
2023-01-13T00:06:13.311Z,11.47
2023-01-13T00:06:23.307Z,11.54
2023-01-13T00:06:33.401Z,11.57
2023-01-13T00:06:43.288Z,11.57
2023-01-13T00:06:53.293Z,11.64
2023-01-13T00:07:03.362Z,11.59
2023-01-13T00:07:13.308Z,11.41
2023-01-13T00:07:23.287Z,11.65
2023-01-13T00:07:33.306Z,11.46
2023-01-13T00:07:43.317Z,11.53
2023-01-13T00:07:53.472Z,11.59
2023-01-13T00:08:03.362Z,11.54
2023-01-13T00:08:13.955Z,11.54
2023-01-13T00:08:23.288Z,11.64
2023-01-13T00:08:33.300Z,11.43
2023-01-13T00:08:43.287Z,11.49
2023-01-13T00:08:53.288Z,11.61
2023-01-13T00:09:03.290Z,11.44
2023-01-13T00:09:14.061Z,11.41
2023-01-13T00:09:23.287Z,11.52
2023-01-13T00:09:33.285Z,11.54
2023-01-13T00:09:43.294Z,11.59
2023-01-13T00:09:53.282Z,11.44
2023-01-13T00:10:03.329Z,11.38
2023-01-13T00:10:13.299Z,11.43
2023-01-13T00:10:23.280Z,11.39
2023-01-13T00:10:33.276Z,11.57
2023-01-13T00:10:43.274Z,11.56
2023-01-13T00:10:53.287Z,11.46
2023-01-13T00:11:03.315Z,11.43
2023-01-13T00:11:13.265Z,11.43
2023-01-13T00:11:23.303Z,11.50
2023-01-13T00:11:33.277Z,11.35
2023-01-13T00:11:43.268Z,11.43
2023-01-13T00:11:53.392Z,11.54
2023-01-13T00:12:03.338Z,11.49
2023-01-13T00:12:13.488Z,11.49
2023-01-13T00:12:23.272Z,11.61
2023-01-13T00:12:33.291Z,11.49
2023-01-13T00:12:43.297Z,11.52
2023-01-13T00:12:53.259Z,11.44
2023-01-13T00:13:03.280Z,11.39
2023-01-13T00:13:13.400Z,11.47
2023-01-13T00:13:23.291Z,11.49
2023-01-13T00:13:33.285Z,11.44
2023-01-13T00:13:43.346Z,11.43
2023-01-13T00:13:53.265Z,11.43
2023-01-13T00:14:03.911Z,11.46
2023-01-13T00:14:13.269Z,11.46
2023-01-13T00:14:23.304Z,11.34
2023-01-13T00:14:33.250Z,11.29
2023-01-13T00:14:43.260Z,11.46
2023-01-13T00:14:53.379Z,11.49
2023-01-13T00:15:03.261Z,11.35
2023-01-13T00:15:13.254Z,11.49
2023-01-13T00:15:23.250Z,11.39
2023-01-13T00:15:33.262Z,11.41
2023-01-13T00:15:43.344Z,11.29
2023-01-13T00:15:53.309Z,11.46
2023-01-13T00:16:03.323Z,11.36
2023-01-13T00:16:13.382Z,11.46
2023-01-13T00:16:23.246Z,11.44
2023-01-13T00:16:33.269Z,11.24
2023-01-13T00:16:43.249Z,11.49
2023-01-13T00:16:53.913Z,11.43
2023-01-13T00:17:03.278Z,11.46
2023-01-13T00:17:13.248Z,11.47
2023-01-13T00:17:23.254Z,11.43
2023-01-13T00:17:33.900Z,11.41
2023-01-13T00:17:43.407Z,11.41
2023-01-13T00:17:53.254Z,11.46
2023-01-13T00:18:03.239Z,11.56
2023-01-13T00:18:13.232Z,11.54
2023-01-13T00:18:23.303Z,11.52
2023-01-13T00:18:33.248Z,11.50
2023-01-13T00:18:43.266Z,11.52
2023-01-13T00:18:53.232Z,11.49
2023-01-13T00:19:03.225Z,11.49
2023-01-13T00:19:13.231Z,11.39
2023-01-13T00:19:23.255Z,11.44
2023-01-13T00:19:33.227Z,11.54
2023-01-13T00:19:43.239Z,11.34
2023-01-13T00:19:53.301Z,11.35
2023-01-13T00:20:03.275Z,11.46
2023-01-13T00:20:13.223Z,11.47
2023-01-13T00:20:23.904Z,11.43
2023-01-13T00:20:33.229Z,11.50
2023-01-13T00:20:43.220Z,11.50
2023-01-13T00:20:53.232Z,11.41
2023-01-13T00:21:03.284Z,11.36
2023-01-13T00:21:13.224Z,11.43
2023-01-13T00:21:23.268Z,11.35
2023-01-13T00:21:33.220Z,11.47
2023-01-13T00:21:43.241Z,11.52
2023-01-13T00:21:53.935Z,11.49
2023-01-13T00:22:03.229Z,11.44
2023-01-13T00:22:13.223Z,11.29
2023-01-13T00:22:23.282Z,11.39
2023-01-13T00:22:33.219Z,11.53
2023-01-13T00:22:43.317Z,11.35
2023-01-13T00:22:53.228Z,11.47
2023-01-13T00:23:03.319Z,11.39
2023-01-13T00:23:13.899Z,11.39
2023-01-13T00:23:23.212Z,11.43
2023-01-13T00:23:33.334Z,11.46
2023-01-13T00:23:43.220Z,11.38
2023-01-13T00:23:53.220Z,11.28
2023-01-13T00:24:03.225Z,11.38
2023-01-13T00:24:13.222Z,11.36
2023-01-13T00:24:23.207Z,11.31
2023-01-13T00:24:33.225Z,11.47
2023-01-13T00:24:43.209Z,11.32
2023-01-13T00:24:53.222Z,11.36
2023-01-13T00:25:03.206Z,11.56
2023-01-13T00:25:13.233Z,11.38
2023-01-13T00:25:23.243Z,11.43
2023-01-13T00:25:33.214Z,11.32
2023-01-13T00:25:43.239Z,11.36
2023-01-13T00:25:53.203Z,11.29
2023-01-13T00:26:03.272Z,11.38
2023-01-13T00:26:13.225Z,11.39
2023-01-13T00:26:23.203Z,11.50
2023-01-13T00:26:33.202Z,11.50
2023-01-13T00:26:43.220Z,11.36
2023-01-13T00:26:53.275Z,11.41
2023-01-13T00:27:03.196Z,11.47
2023-01-13T00:27:13.198Z,11.38
2023-01-13T00:27:23.955Z,11.47
2023-01-13T00:27:33.195Z,11.32
2023-01-13T00:27:43.191Z,11.34
2023-01-13T00:27:53.217Z,11.28
2023-01-13T00:28:03.905Z,11.39
2023-01-13T00:28:13.187Z,11.32
2023-01-13T00:28:23.207Z,11.44
2023-01-13T00:28:33.194Z,11.41
2023-01-13T00:28:43.499Z,11.35
2023-01-13T00:28:53.193Z,11.24
2023-01-13T00:29:03.200Z,11.44
2023-01-13T00:29:13.197Z,11.28
2023-01-13T00:29:23.205Z,11.31
2023-01-13T00:29:33.203Z,11.36
2023-01-13T00:29:43.182Z,11.47
2023-01-13T00:29:53.190Z,11.29
2023-01-13T00:30:03.217Z,11.27
2023-01-13T00:30:13.919Z,11.38
2023-01-13T00:30:23.924Z,11.34
2023-01-13T00:30:33.180Z,11.36
2023-01-13T00:30:43.917Z,11.35
2023-01-13T00:30:53.303Z,11.35
2023-01-13T00:31:03.238Z,11.39
2023-01-13T00:31:13.297Z,11.44
2023-01-13T00:31:23.249Z,11.38
2023-01-13T00:31:33.977Z,11.32
2023-01-13T00:31:43.205Z,11.52
2023-01-13T00:31:53.187Z,11.39
2023-01-13T00:32:03.907Z,11.36
2023-01-13T00:32:13.197Z,11.31
2023-01-13T00:32:23.175Z,11.44
2023-01-13T00:32:33.165Z,11.44
2023-01-13T00:32:43.166Z,11.52
2023-01-13T00:32:53.193Z,11.31
2023-01-13T00:33:03.279Z,11.38
2023-01-13T00:33:13.272Z,11.24
2023-01-13T00:33:23.166Z,11.43
2023-01-13T00:33:33.196Z,11.47
2023-01-13T00:33:43.262Z,11.20
2023-01-13T00:33:53.207Z,11.41
2023-01-13T00:34:03.275Z,11.34
2023-01-13T00:34:13.187Z,11.39
2023-01-13T00:34:23.932Z,11.38
2023-01-13T00:34:33.168Z,11.50
2023-01-13T00:34:43.170Z,11.35
2023-01-13T00:34:53.171Z,11.29
2023-01-13T00:35:03.158Z,11.52
2023-01-13T00:35:13.173Z,11.35
2023-01-13T00:35:23.161Z,11.41
2023-01-13T00:35:33.193Z,11.36
2023-01-13T00:35:43.177Z,11.31
2023-01-13T00:35:53.171Z,11.29
2023-01-13T00:36:03.159Z,11.43
2023-01-13T00:36:13.167Z,11.41
2023-01-13T00:36:23.286Z,11.36
2023-01-13T00:36:33.190Z,11.29
2023-01-13T00:36:43.156Z,11.16
2023-01-13T00:36:53.166Z,11.28
2023-01-13T00:37:03.933Z,11.28
2023-01-13T00:37:13.242Z,11.32
2023-01-13T00:37:23.201Z,11.28
2023-01-13T00:37:33.195Z,11.21
2023-01-13T00:37:43.155Z,11.49
2023-01-13T00:37:53.186Z,11.29
2023-01-13T00:38:03.150Z,11.29
2023-01-13T00:38:13.155Z,11.21
2023-01-13T00:38:23.189Z,11.38
2023-01-13T00:38:33.948Z,11.34
2023-01-13T00:38:43.156Z,11.32
2023-01-13T00:38:53.143Z,11.36
2023-01-13T00:39:03.244Z,11.24
2023-01-13T00:39:13.159Z,11.29
2023-01-13T00:39:23.141Z,11.32
2023-01-13T00:39:33.137Z,11.25
2023-01-13T00:39:43.149Z,11.31
2023-01-13T00:39:53.145Z,11.24
2023-01-13T00:40:03.151Z,11.44
2023-01-13T00:40:13.149Z,11.35
2023-01-13T00:40:23.908Z,11.27
2023-01-13T00:40:33.142Z,11.21
2023-01-13T00:40:43.137Z,11.29
2023-01-13T00:40:53.902Z,11.25
2023-01-13T00:41:03.139Z,11.25
2023-01-13T00:41:13.140Z,11.29
2023-01-13T00:41:23.200Z,11.39
2023-01-13T00:41:33.145Z,11.32
2023-01-13T00:41:43.141Z,11.16
2023-01-13T00:41:53.147Z,11.27
2023-01-13T00:42:03.134Z,11.02
2023-01-13T00:42:13.129Z,11.17
2023-01-13T00:42:23.130Z,11.27
2023-01-13T00:42:33.169Z,11.21
2023-01-13T00:42:43.140Z,11.17
2023-01-13T00:42:53.128Z,11.11
2023-01-13T00:43:03.141Z,11.29
2023-01-13T00:43:13.144Z,11.14
2023-01-13T00:43:23.140Z,11.17
2023-01-13T00:43:33.149Z,11.20
2023-01-13T00:43:43.136Z,11.03
2023-01-13T00:43:53.141Z,11.16
2023-01-13T00:44:03.153Z,11.25
2023-01-13T00:44:13.211Z,11.10
2023-01-13T00:44:23.119Z,11.13
2023-01-13T00:44:33.115Z,11.06
2023-01-13T00:44:43.134Z,11.03
2023-01-13T00:44:53.114Z,11.29
2023-01-13T00:45:03.170Z,11.06
2023-01-13T00:45:13.169Z,10.99
2023-01-13T00:45:23.127Z,11.09
2023-01-13T00:45:33.941Z,11.01
2023-01-13T00:45:43.909Z,10.94
2023-01-13T00:45:53.137Z,11.24
2023-01-13T00:46:03.135Z,11.02
2023-01-13T00:46:13.189Z,11.02
2023-01-13T00:46:23.180Z,11.16
2023-01-13T00:46:33.271Z,11.02
2023-01-13T00:46:43.152Z,10.99
2023-01-13T00:46:53.146Z,10.95
2023-01-13T00:47:03.119Z,10.99
2023-01-13T00:47:13.216Z,11.11
2023-01-13T00:47:23.100Z,10.96
2023-01-13T00:47:33.162Z,11.19
2023-01-13T00:47:43.111Z,10.96
2023-01-13T00:47:53.912Z,11.02
2023-01-13T00:48:03.136Z,11.09
2023-01-13T00:48:13.102Z,11.02
2023-01-13T00:48:23.191Z,10.95
2023-01-13T00:48:33.907Z,10.98
2023-01-13T00:48:43.111Z,10.92
2023-01-13T00:48:53.110Z,11.03
2023-01-13T00:49:03.115Z,11.02
2023-01-13T00:49:13.110Z,11.01
2023-01-13T00:49:23.142Z,10.86
2023-01-13T00:49:33.126Z,10.91
2023-01-13T00:49:43.920Z,11.02
2023-01-13T00:49:53.114Z,11.06
2023-01-13T00:50:03.109Z,10.83
2023-01-13T00:50:13.091Z,10.98
2023-01-13T00:50:23.111Z,10.92
2023-01-13T00:50:33.087Z,10.88
2023-01-13T00:50:43.111Z,10.95
2023-01-13T00:50:53.154Z,10.99
2023-01-13T00:51:03.162Z,10.84
2023-01-13T00:51:13.088Z,10.91
2023-01-13T00:51:23.090Z,10.92
2023-01-13T00:51:33.084Z,10.99
2023-01-13T00:51:43.106Z,10.89
2023-01-13T00:51:53.088Z,10.86
2023-01-13T00:52:03.097Z,10.99
2023-01-13T00:52:13.095Z,10.89
2023-01-13T00:52:23.098Z,10.89
2023-01-13T00:52:33.197Z,10.89
2023-01-13T00:52:43.098Z,10.88
2023-01-13T00:52:53.122Z,10.88
2023-01-13T00:53:03.131Z,10.78
2023-01-13T00:53:13.104Z,10.86
2023-01-13T00:53:23.091Z,10.86
2023-01-13T00:53:33.092Z,10.86
2023-01-13T00:53:43.093Z,10.81
2023-01-13T00:53:53.921Z,10.92
2023-01-13T00:54:03.880Z,10.84
2023-01-13T00:54:13.089Z,10.89
2023-01-13T00:54:23.077Z,10.76
2023-01-13T00:54:33.142Z,10.88
2023-01-13T00:54:43.083Z,10.74
2023-01-13T00:54:53.075Z,10.77
2023-01-13T00:55:03.077Z,10.73
2023-01-13T00:55:13.184Z,10.86
2023-01-13T00:55:23.221Z,10.74
2023-01-13T00:55:33.081Z,10.76
2023-01-13T00:55:43.083Z,10.80
2023-01-13T00:55:53.083Z,10.77
2023-01-13T00:56:03.078Z,10.83
2023-01-13T00:56:13.063Z,10.63
2023-01-13T00:56:38.666Z,10.68
2023-01-13T00:56:40.328Z,10.81
2023-01-13T00:56:43.909Z,10.73
2023-01-13T00:56:53.062Z,10.83
2023-01-13T00:57:03.072Z,10.78
2023-01-13T00:57:13.070Z,10.80
2023-01-13T00:57:23.057Z,10.52
2023-01-13T00:57:33.081Z,10.89
2023-01-13T00:57:43.100Z,10.78
2023-01-13T00:57:53.073Z,10.78
2023-01-13T00:58:03.089Z,10.70
2023-01-13T00:58:13.070Z,10.77
2023-01-13T00:58:23.087Z,10.71
2023-01-13T00:58:33.085Z,10.89
2023-01-13T00:58:43.064Z,10.77
2023-01-13T00:58:53.063Z,10.70
2023-01-13T00:59:03.072Z,10.70
2023-01-13T00:59:13.053Z,10.70
2023-01-13T00:59:23.046Z,10.83
2023-01-13T00:59:33.047Z,10.71
2023-01-13T00:59:43.113Z,10.81
2023-01-13T00:59:53.077Z,10.77
2023-01-13T01:00:03.058Z,10.62
2023-01-13T01:00:13.050Z,10.63
2023-01-13T01:00:23.043Z,10.65
2023-01-13T01:00:33.106Z,10.71
2023-01-13T01:00:43.196Z,10.65
2023-01-13T01:00:54.099Z,10.83
2023-01-13T01:01:03.279Z,10.74
2023-01-13T01:01:13.178Z,10.65
2023-01-13T01:01:23.191Z,10.76
2023-01-13T01:01:33.271Z,10.60
2023-01-13T01:01:43.248Z,10.74
2023-01-13T01:01:53.096Z,10.78
2023-01-13T01:02:03.172Z,10.71
2023-01-13T01:02:13.198Z,10.86
2023-01-13T01:02:23.067Z,10.83
2023-01-13T01:02:33.080Z,10.58
2023-01-13T01:02:43.085Z,10.70
2023-01-13T01:02:53.033Z,10.47
2023-01-13T01:03:03.068Z,10.56
2023-01-13T01:03:13.032Z,10.53
2023-01-13T01:03:23.038Z,10.55
2023-01-13T01:03:33.034Z,10.66
2023-01-13T01:03:43.071Z,10.70
2023-01-13T01:03:53.093Z,10.65
2023-01-13T01:04:03.033Z,10.77
2023-01-13T01:04:13.029Z,10.60
2023-01-13T01:04:23.054Z,10.66
2023-01-13T01:04:33.035Z,10.65
2023-01-13T01:04:43.028Z,10.62
2023-01-13T01:04:53.081Z,10.52
2023-01-13T01:05:03.056Z,10.70
2023-01-13T01:05:13.175Z,10.68
2023-01-13T01:05:23.042Z,10.73
2023-01-13T01:05:33.019Z,10.71
2023-01-13T01:05:43.023Z,10.66
2023-01-13T01:05:53.048Z,10.80
2023-01-13T01:06:03.022Z,10.58
2023-01-13T01:06:13.112Z,10.58
2023-01-13T01:06:23.021Z,10.65
2023-01-13T01:06:33.103Z,10.71
2023-01-13T01:06:43.021Z,10.68
2023-01-13T01:06:53.040Z,10.74
2023-01-13T01:07:03.054Z,10.70
2023-01-13T01:07:13.032Z,10.68
2023-01-13T01:07:23.056Z,10.62
2023-01-13T01:07:33.027Z,10.65
2023-01-13T01:07:43.063Z,10.66
2023-01-13T01:07:53.058Z,10.71
2023-01-13T01:08:03.062Z,10.78
2023-01-13T01:08:13.011Z,10.56
2023-01-13T01:08:23.055Z,10.63
2023-01-13T01:08:33.007Z,10.78
2023-01-13T01:08:43.012Z,10.71
2023-01-13T01:08:53.006Z,10.66
2023-01-13T01:09:03.008Z,10.84
2023-01-13T01:09:13.925Z,10.76
2023-01-13T01:09:23.006Z,10.62
2023-01-13T01:09:33.017Z,10.70
2023-01-13T01:09:43.046Z,10.70
2023-01-13T01:09:53.024Z,10.60
2023-01-13T01:10:03.979Z,10.70
2023-01-13T01:10:13.017Z,10.62
2023-01-13T01:10:23.003Z,10.78
2023-01-13T01:10:33.019Z,10.65
2023-01-13T01:10:43.075Z,10.58
2023-01-13T01:10:52.995Z,10.68
2023-01-13T01:11:03.025Z,10.73
2023-01-13T01:11:13.013Z,10.62
2023-01-13T01:11:23.021Z,10.60
2023-01-13T01:11:33.060Z,10.53
2023-01-13T01:11:43.052Z,10.74
2023-01-13T01:11:52.996Z,10.66
2023-01-13T01:12:03.928Z,10.68
2023-01-13T01:12:12.999Z,10.60
2023-01-13T01:12:23.002Z,10.65
2023-01-13T01:12:32.991Z,10.51
2023-01-13T01:12:43.031Z,10.71
2023-01-13T01:12:53.018Z,10.55
2023-01-13T01:13:03.007Z,10.56
2023-01-13T01:13:12.986Z,10.62
2023-01-13T01:13:23.929Z,10.59
2023-01-13T01:13:33.233Z,10.66
2023-01-13T01:13:43.034Z,10.74
2023-01-13T01:13:52.994Z,10.71
2023-01-13T01:14:03.011Z,10.60
2023-01-13T01:14:12.983Z,10.62
2023-01-13T01:14:22.996Z,10.66
2023-01-13T01:14:32.980Z,10.71
2023-01-13T01:14:42.979Z,10.65
2023-01-13T01:14:53.933Z,10.63
2023-01-13T01:15:03.021Z,10.62
2023-01-13T01:15:13.085Z,10.56
2023-01-13T01:15:22.976Z,10.62
2023-01-13T01:15:32.981Z,10.59
2023-01-13T01:15:42.997Z,10.55
2023-01-13T01:15:53.012Z,10.70
2023-01-13T01:16:03.065Z,10.70
2023-01-13T01:16:13.230Z,10.71
2023-01-13T01:16:23.099Z,10.65
2023-01-13T01:16:33.080Z,10.70
2023-01-13T01:16:42.995Z,10.52
2023-01-13T01:16:52.982Z,10.70
2023-01-13T01:17:02.975Z,10.59
2023-01-13T01:17:12.968Z,10.66
2023-01-13T01:17:22.963Z,10.68
2023-01-13T01:17:32.969Z,10.70
2023-01-13T01:17:43.110Z,10.91
2023-01-13T01:17:53.940Z,10.56
2023-01-13T01:18:02.962Z,10.70
2023-01-13T01:18:12.965Z,10.68
2023-01-13T01:18:22.967Z,10.86
2023-01-13T01:18:33.000Z,10.71
2023-01-13T01:18:42.974Z,10.59
2023-01-13T01:18:52.975Z,10.77
2023-01-13T01:19:03.076Z,10.73
2023-01-13T01:19:12.972Z,10.56
2023-01-13T01:19:22.965Z,10.73
2023-01-13T01:19:32.997Z,10.53
2023-01-13T01:19:43.927Z,10.83
2023-01-13T01:19:52.967Z,10.58
2023-01-13T01:20:02.975Z,10.71
2023-01-13T01:20:12.964Z,10.68
2023-01-13T01:20:23.019Z,10.77
2023-01-13T01:20:33.179Z,10.73
2023-01-13T01:20:42.976Z,10.68
2023-01-13T01:20:52.953Z,10.59
2023-01-13T01:21:03.018Z,10.62
2023-01-13T01:21:12.972Z,10.56
2023-01-13T01:21:22.956Z,10.83
2023-01-13T01:21:32.957Z,10.63
2023-01-13T01:21:42.958Z,10.56
2023-01-13T01:21:54.080Z,10.66
2023-01-13T01:22:02.975Z,10.53
2023-01-13T01:22:12.973Z,10.63
2023-01-13T01:22:22.962Z,10.62
2023-01-13T01:22:32.987Z,10.59
2023-01-13T01:22:42.950Z,10.68
2023-01-13T01:22:52.965Z,10.63
2023-01-13T01:23:02.974Z,10.62
2023-01-13T01:23:13.011Z,10.77
2023-01-13T01:23:22.946Z,10.60
2023-01-13T01:23:32.945Z,10.73
2023-01-13T01:23:42.952Z,10.74
2023-01-13T01:23:52.947Z,10.65
2023-01-13T01:24:02.934Z,10.62
2023-01-13T01:24:12.980Z,10.52
2023-01-13T01:24:22.943Z,10.66
2023-01-13T01:24:32.937Z,10.56
2023-01-13T01:24:43.128Z,10.46
2023-01-13T01:24:53.034Z,10.60
2023-01-13T01:25:02.945Z,10.51
2023-01-13T01:25:12.940Z,10.52
2023-01-13T01:25:22.980Z,10.47
2023-01-13T01:25:33.494Z,10.53
2023-01-13T01:25:42.940Z,10.55
2023-01-13T01:25:52.930Z,10.63
2023-01-13T01:26:03.945Z,10.71
2023-01-13T01:26:12.931Z,10.63
2023-01-13T01:26:22.958Z,10.53
2023-01-13T01:26:32.939Z,10.55
2023-01-13T01:26:42.926Z,10.68
2023-01-13T01:26:52.931Z,10.68
2023-01-13T01:27:02.926Z,10.70
2023-01-13T01:27:12.953Z,10.71
2023-01-13T01:27:22.988Z,10.59
2023-01-13T01:27:32.923Z,10.55
2023-01-13T01:27:42.965Z,10.43
2023-01-13T01:27:52.922Z,10.52
2023-01-13T01:28:02.950Z,10.53
2023-01-13T01:28:12.952Z,10.53
2023-01-13T01:28:22.932Z,10.55
2023-01-13T01:28:33.047Z,10.56
2023-01-13T01:28:42.947Z,10.52
2023-01-13T01:28:53.001Z,10.46
2023-01-13T01:29:02.936Z,10.58
2023-01-13T01:29:12.962Z,10.73
2023-01-13T01:29:22.927Z,10.52
2023-01-13T01:29:32.920Z,10.55
2023-01-13T01:29:42.934Z,10.53
2023-01-13T01:29:52.913Z,10.65
2023-01-13T01:30:02.918Z,10.56
2023-01-13T01:30:12.943Z,10.59
2023-01-13T01:30:22.946Z,10.56
2023-01-13T01:30:32.914Z,10.52
2023-01-13T01:30:42.973Z,10.53
2023-01-13T01:30:52.933Z,10.56
2023-01-13T01:31:02.965Z,10.56
2023-01-13T01:31:12.985Z,10.46
2023-01-13T01:31:22.937Z,10.53
2023-01-13T01:31:33.004Z,10.62
2023-01-13T01:31:43.040Z,10.59
2023-01-13T01:31:52.927Z,10.63
2023-01-13T01:32:02.915Z,10.46
2023-01-13T01:32:12.912Z,10.56
2023-01-13T01:32:22.926Z,10.47
2023-01-13T01:32:32.970Z,10.60
2023-01-13T01:32:43.001Z,10.63
2023-01-13T01:32:52.908Z,10.43
2023-01-13T01:33:03.431Z,10.40
2023-01-13T01:33:12.916Z,10.62
2023-01-13T01:33:22.897Z,10.46
2023-01-13T01:33:32.913Z,10.65
2023-01-13T01:33:42.908Z,10.59
2023-01-13T01:33:52.900Z,10.59
2023-01-13T01:34:02.936Z,10.40
2023-01-13T01:34:12.961Z,10.52
2023-01-13T01:34:22.899Z,10.65
2023-01-13T01:34:32.892Z,10.65
2023-01-13T01:34:42.898Z,10.51
2023-01-13T01:34:52.902Z,10.46
2023-01-13T01:35:03.520Z,10.55
2023-01-13T01:35:12.907Z,10.60
2023-01-13T01:35:22.900Z,10.59
2023-01-13T01:35:32.884Z,10.42
2023-01-13T01:35:42.908Z,10.44
2023-01-13T01:35:52.987Z,10.51
2023-01-13T01:36:02.906Z,10.58
2023-01-13T01:36:12.906Z,10.60
2023-01-13T01:36:22.902Z,10.70
2023-01-13T01:36:32.902Z,10.73
2023-01-13T01:36:42.911Z,10.58
2023-01-13T01:36:52.889Z,10.44
2023-01-13T01:37:02.902Z,10.46
2023-01-13T01:37:13.430Z,10.68
2023-01-13T01:37:23.047Z,10.58
2023-01-13T01:37:32.888Z,10.56
2023-01-13T01:37:42.883Z,10.63
2023-01-13T01:37:52.879Z,10.47
2023-01-13T01:38:02.932Z,10.56
2023-01-13T01:38:13.005Z,10.47
2023-01-13T01:38:22.875Z,10.55
2023-01-13T01:38:32.876Z,10.74
2023-01-13T01:38:42.958Z,10.74
2023-01-13T01:38:52.938Z,10.65
2023-01-13T01:39:02.900Z,10.52
2023-01-13T01:39:12.907Z,10.51
2023-01-13T01:39:23.487Z,10.62
2023-01-13T01:39:32.909Z,10.65
2023-01-13T01:39:42.882Z,10.47
2023-01-13T01:39:52.977Z,10.66
2023-01-13T01:40:03.451Z,10.65
2023-01-13T01:40:12.894Z,10.58
2023-01-13T01:40:22.888Z,10.68
2023-01-13T01:40:33.014Z,10.63
2023-01-13T01:40:42.867Z,10.37
2023-01-13T01:40:52.899Z,10.52
2023-01-13T01:41:02.954Z,10.70
2023-01-13T01:41:12.868Z,10.46
2023-01-13T01:41:22.884Z,10.51
2023-01-13T01:41:32.873Z,10.58
2023-01-13T01:41:42.877Z,10.53
2023-01-13T01:41:52.993Z,10.56
2023-01-13T01:42:02.869Z,10.47
2023-01-13T01:42:15.491Z,10.62
2023-01-13T01:42:22.916Z,10.51
2023-01-13T01:42:32.854Z,10.56
2023-01-13T01:42:42.858Z,10.59
2023-01-13T01:42:52.932Z,10.66
2023-01-13T01:43:02.904Z,10.59
2023-01-13T01:43:12.908Z,10.59
2023-01-13T01:43:22.856Z,10.56
2023-01-13T01:43:32.855Z,10.44
2023-01-13T01:43:42.863Z,10.65
2023-01-13T01:43:52.855Z,10.59
2023-01-13T01:44:03.034Z,10.53
2023-01-13T01:44:13.445Z,10.51
2023-01-13T01:44:22.880Z,10.65
2023-01-13T01:44:32.858Z,10.53
2023-01-13T01:44:42.892Z,10.73
2023-01-13T01:44:52.852Z,10.65
2023-01-13T01:45:02.863Z,10.60
2023-01-13T01:45:12.849Z,10.76
2023-01-13T01:45:22.876Z,10.63
2023-01-13T01:45:32.858Z,10.78
2023-01-13T01:45:42.843Z,10.66
2023-01-13T01:45:52.840Z,10.68
2023-01-13T01:46:02.872Z,10.86
2023-01-13T01:46:12.896Z,10.59
2023-01-13T01:46:22.943Z,10.66
2023-01-13T01:46:32.892Z,10.65
2023-01-13T01:46:42.995Z,10.62
2023-01-13T01:46:52.985Z,10.62
2023-01-13T01:47:03.514Z,10.59
2023-01-13T01:47:12.832Z,10.58
2023-01-13T01:47:22.851Z,10.60
2023-01-13T01:47:32.850Z,10.58
2023-01-13T01:47:42.846Z,10.56
2023-01-13T01:47:52.832Z,10.65
2023-01-13T01:48:02.943Z,10.68
2023-01-13T01:48:12.830Z,10.74
2023-01-13T01:48:22.842Z,10.77
2023-01-13T01:48:32.951Z,10.81
2023-01-13T01:48:42.904Z,10.59
2023-01-13T01:48:52.829Z,10.73
2023-01-13T01:49:02.882Z,10.63
2023-01-13T01:49:12.915Z,10.62
2023-01-13T01:49:22.831Z,10.71
2023-01-13T01:49:32.922Z,10.58
2023-01-13T01:49:42.847Z,10.74
2023-01-13T01:49:52.943Z,10.84
2023-01-13T01:50:02.886Z,10.66
2023-01-13T01:50:12.846Z,10.78
2023-01-13T01:50:22.839Z,10.68
2023-01-13T01:50:32.824Z,10.74
2023-01-13T01:50:42.856Z,10.70
2023-01-13T01:50:52.836Z,10.71
2023-01-13T01:51:02.876Z,10.83
2023-01-13T01:51:13.446Z,10.59
2023-01-13T01:51:22.970Z,10.71
2023-01-13T01:51:32.820Z,10.65
2023-01-13T01:51:43.435Z,10.68
2023-01-13T01:51:52.946Z,10.65
2023-01-13T01:52:02.813Z,10.74
2023-01-13T01:52:12.816Z,10.63
2023-01-13T01:52:22.852Z,10.78
2023-01-13T01:52:32.822Z,10.70
2023-01-13T01:52:42.939Z,10.70
2023-01-13T01:52:52.853Z,10.65
2023-01-13T01:53:02.811Z,10.76
2023-01-13T01:53:12.825Z,10.73
2023-01-13T01:53:22.813Z,10.68
2023-01-13T01:53:32.816Z,10.55
2023-01-13T01:53:42.835Z,10.59
2023-01-13T01:53:52.867Z,10.60
2023-01-13T01:54:02.866Z,10.78
2023-01-13T01:54:12.831Z,10.68
2023-01-13T01:54:22.813Z,10.60
2023-01-13T01:54:32.831Z,10.77
2023-01-13T01:54:42.917Z,10.51
2023-01-13T01:54:52.802Z,10.66
2023-01-13T01:55:02.881Z,10.76
2023-01-13T01:55:12.826Z,10.62
2023-01-13T01:55:22.803Z,10.73
2023-01-13T01:55:32.804Z,10.63
2023-01-13T01:55:42.825Z,10.68
2023-01-13T01:55:52.809Z,10.68
2023-01-13T01:56:02.801Z,10.76
2023-01-13T01:56:12.802Z,10.76
2023-01-13T01:56:23.602Z,10.70
2023-01-13T01:56:32.864Z,10.70
2023-01-13T01:56:42.835Z,10.70
2023-01-13T01:56:52.908Z,10.71
2023-01-13T01:57:02.793Z,10.63
2023-01-13T01:57:12.789Z,10.78
2023-01-13T01:57:22.801Z,10.88
2023-01-13T01:57:32.812Z,10.76
2023-01-13T01:57:42.837Z,10.70
2023-01-13T01:57:52.830Z,10.89
2023-01-13T01:58:02.822Z,10.70
2023-01-13T01:58:13.443Z,10.83
2023-01-13T01:58:23.457Z,10.83
2023-01-13T01:58:32.823Z,10.73
2023-01-13T01:58:42.783Z,10.94
2023-01-13T01:58:52.830Z,10.99
2023-01-13T01:59:02.816Z,10.86
2023-01-13T01:59:12.871Z,10.81
2023-01-13T01:59:23.442Z,10.80
2023-01-13T01:59:32.852Z,10.84
2023-01-13T01:59:42.779Z,10.84
2023-01-13T01:59:52.815Z,10.95
2023-01-13T02:00:02.802Z,10.99
2023-01-13T02:00:12.783Z,10.95
2023-01-13T02:00:22.801Z,10.78
2023-01-13T02:00:32.801Z,10.86
2023-01-13T02:00:42.855Z,10.98
2023-01-13T02:00:53.081Z,10.86
2023-01-13T02:01:03.071Z,10.86
2023-01-13T02:01:12.890Z,11.06
2023-01-13T02:01:23.001Z,10.89
2023-01-13T02:01:32.861Z,10.95
2023-01-13T02:01:42.956Z,11.01
2023-01-13T02:01:52.882Z,10.95
2023-01-13T02:02:02.900Z,10.84
2023-01-13T02:02:12.962Z,10.98
2023-01-13T02:02:22.834Z,11.01
2023-01-13T02:02:32.773Z,10.89
2023-01-13T02:02:42.858Z,10.83
2023-01-13T02:02:52.797Z,11.07
2023-01-13T02:03:02.779Z,11.03
2023-01-13T02:03:12.797Z,10.94
2023-01-13T02:03:22.767Z,11.13
2023-01-13T02:03:32.896Z,10.86
2023-01-13T02:03:42.787Z,11.01
2023-01-13T02:03:52.769Z,11.24
2023-01-13T02:04:02.782Z,10.86
2023-01-13T02:04:12.894Z,10.98
2023-01-13T02:04:22.768Z,11.21
2023-01-13T02:04:32.768Z,10.99
2023-01-13T02:04:42.786Z,10.96
2023-01-13T02:04:52.765Z,11.11
2023-01-13T02:05:02.772Z,10.99
2023-01-13T02:05:12.833Z,10.99
2023-01-13T02:05:22.773Z,11.03
2023-01-13T02:05:32.763Z,11.02
2023-01-13T02:05:42.787Z,11.03
2023-01-13T02:05:52.754Z,10.99
2023-01-13T02:06:02.787Z,11.09
2023-01-13T02:06:12.752Z,11.11
2023-01-13T02:06:22.754Z,11.09
2023-01-13T02:06:33.466Z,10.96
2023-01-13T02:06:42.751Z,11.03
2023-01-13T02:06:52.791Z,11.02
2023-01-13T02:07:02.792Z,11.06
2023-01-13T02:07:12.748Z,11.01
2023-01-13T02:07:22.748Z,11.13
2023-01-13T02:07:32.782Z,11.13
2023-01-13T02:07:42.751Z,10.96
2023-01-13T02:07:52.739Z,11.03
2023-01-13T02:08:03.451Z,11.06
2023-01-13T02:08:13.439Z,11.16
2023-01-13T02:08:22.775Z,11.14
2023-01-13T02:08:32.798Z,11.11
2023-01-13T02:08:42.774Z,11.14